createdAt,value
2018-08-06T00:00:57.981Z,63.06
2018-08-06T00:03:29.785Z,62.22
2018-08-06T00:06:01.487Z,62.79
2018-08-06T00:08:33.571Z,62.68
2018-08-06T00:11:05.273Z,61.01
2018-08-06T00:13:37.186Z,62.76
2018-08-06T00:16:08.948Z,63.69
2018-08-06T00:18:40.789Z,63.10
2018-08-06T00:21:12.664Z,62.77
2018-08-06T00:23:44.575Z,63.48
2018-08-06T00:26:16.320Z,63.08
2018-08-06T00:28:48.394Z,62.17
2018-08-06T00:31:20.466Z,63.45
2018-08-06T00:33:52.278Z,63.17
2018-08-06T00:36:24.125Z,63.29
2018-08-06T00:38:56.066Z,63.53
2018-08-06T00:41:27.879Z,62.81
2018-08-06T00:44:00.155Z,62.49
2018-08-06T00:46:31.612Z,62.74
2018-08-06T00:49:05.421Z,61.39
2018-08-06T00:51:37.195Z,62.37
2018-08-06T00:54:09.158Z,63.22
2018-08-06T00:56:41.004Z,63.22
2018-08-06T00:59:14.169Z,62.88
2018-08-06T01:01:47.475Z,56.01
2018-08-06T01:04:19.501Z,57.26
2018-08-06T01:06:51.292Z,57.40
2018-08-06T01:09:23.099Z,59.72
2018-08-06T01:11:54.914Z,60.51
2018-08-06T01:14:26.636Z,60.80
2018-08-06T01:16:58.605Z,60.07
2018-08-06T01:19:31.517Z,60.56
2018-08-06T01:22:04.732Z,60.83
2018-08-06T01:24:36.642Z,60.99
2018-08-06T01:27:08.325Z,61.21
2018-08-06T01:29:40.321Z,60.10
2018-08-06T01:32:12.026Z,63.16
2018-08-06T01:34:44.033Z,62.77
2018-08-06T01:37:15.753Z,64.11
2018-08-06T01:39:47.589Z,62.84
2018-08-06T01:42:19.474Z,63.35
2018-08-06T01:44:51.139Z,62.59
2018-08-06T01:47:24.775Z,62.24
2018-08-06T01:49:56.540Z,62.98
2018-08-06T01:52:28.574Z,62.88
2018-08-06T01:55:00.546Z,64.00
2018-08-06T01:57:32.373Z,64.83
2018-08-06T02:00:05.005Z,64.27
2018-08-06T02:02:36.857Z,64.73
2018-08-06T02:05:09.706Z,65.12
2018-08-06T02:07:41.932Z,65.48
2018-08-06T02:10:15.687Z,65.31
2018-08-06T02:12:47.340Z,64.50
2018-08-06T02:15:18.996Z,65.53
2018-08-06T02:17:50.463Z,65.99
2018-08-06T02:20:22.622Z,65.08
2018-08-06T02:22:54.362Z,65.47
2018-08-06T02:25:26.417Z,65.55
2018-08-06T02:27:58.236Z,65.38
2018-08-06T02:30:30.545Z,66.02
2018-08-06T02:33:02.302Z,66.37
2018-08-06T02:35:34.111Z,65.27
2018-08-06T02:38:05.981Z,64.59
2018-08-06T02:40:38.081Z,66.63
2018-08-06T02:43:10.132Z,66.58
2018-08-06T02:45:42.540Z,66.62
2018-08-06T02:48:15.837Z,66.29
2018-08-06T02:50:47.734Z,66.70
2018-08-06T02:53:19.335Z,66.82
2018-08-06T02:55:51.303Z,66.45
2018-08-06T02:58:22.835Z,66.53
2018-08-06T03:00:57.384Z,65.63
2018-08-06T03:03:36.997Z,65.51
2018-08-06T03:06:09.349Z,66.94
2018-08-06T03:08:42.234Z,66.33
2018-08-06T03:11:14.129Z,65.80
2018-08-06T03:13:45.886Z,65.84
2018-08-06T03:16:17.545Z,65.16
2018-08-06T03:18:49.389Z,65.74
2018-08-06T03:21:21.506Z,65.75
2018-08-06T03:23:53.209Z,65.78
2018-08-06T03:26:25.174Z,65.62
2018-08-06T03:28:59.790Z,62.46
2018-08-06T03:31:32.210Z,64.88
2018-08-06T03:34:04.297Z,65.79
2018-08-06T03:36:36.448Z,66.00
2018-08-06T03:39:11.642Z,66.88
2018-08-06T03:41:43.417Z,67.53
2018-08-06T03:44:14.728Z,67.71
2018-08-06T03:46:47.767Z,68.51
2018-08-06T03:49:21.117Z,68.08
2018-08-06T03:51:52.981Z,69.46
2018-08-06T03:54:25.080Z,68.03
2018-08-06T03:56:58.218Z,69.33
2018-08-06T03:59:30.809Z,69.33
2018-08-06T04:02:03.444Z,68.58
2018-08-06T04:04:35.416Z,69.28
2018-08-06T04:07:07.326Z,69.47
2018-08-06T04:09:39.506Z,66.19
2018-08-06T04:12:11.418Z,67.09
2018-08-06T04:14:44.489Z,67.27
2018-08-06T04:17:17.519Z,68.09
2018-08-06T04:19:50.274Z,67.72
2018-08-06T04:22:22.543Z,64.77
2018-08-06T04:24:54.857Z,64.36
2018-08-06T04:27:29.650Z,68.09
2018-08-06T04:30:02.418Z,67.90
2018-08-06T04:32:34.370Z,67.28
2018-08-06T04:35:11.909Z,68.14
2018-08-06T04:37:46.735Z,68.15
2018-08-06T04:40:20.288Z,67.90
2018-08-06T04:42:52.494Z,67.92
2018-08-06T04:45:24.020Z,66.36
2018-08-06T04:47:56.910Z,67.64
2018-08-06T04:50:29.682Z,67.24
2018-08-06T04:53:02.163Z,65.90
2018-08-06T04:55:34.875Z,67.14
2018-08-06T04:58:07.431Z,66.73
2018-08-06T05:00:39.796Z,66.60
2018-08-06T05:03:13.309Z,65.77
2018-08-06T05:05:45.949Z,65.55
2018-08-06T05:08:18.420Z,66.38
2018-08-06T05:10:51.868Z,66.86
2018-08-06T05:13:24.836Z,66.87
2018-08-06T05:15:57.509Z,66.71
2018-08-06T05:18:30.517Z,66.06
2018-08-06T05:21:04.503Z,66.32
2018-08-06T05:23:46.016Z,66.25
2018-08-06T05:26:18.475Z,67.16
2018-08-06T05:28:52.104Z,64.82
2018-08-06T05:31:26.229Z,64.02
2018-08-06T05:33:59.723Z,64.45
2018-08-06T05:36:32.619Z,63.33
2018-08-06T05:39:05.696Z,64.24
2018-08-06T05:41:39.222Z,64.20
2018-08-06T05:44:12.627Z,64.79
2018-08-06T05:46:45.558Z,64.70
2018-08-06T05:49:19.199Z,64.10
2018-08-06T05:51:51.412Z,63.96
2018-08-06T05:54:25.803Z,63.89
2018-08-06T05:56:58.695Z,65.34
2018-08-06T05:59:32.921Z,63.78
2018-08-06T06:02:05.269Z,62.25
2018-08-06T06:04:38.623Z,62.42
2018-08-06T06:07:10.348Z,62.38
2018-08-06T06:09:42.781Z,62.84
2018-08-06T06:12:14.672Z,62.41
2018-08-06T06:14:48.370Z,61.42
2018-08-06T06:17:21.106Z,62.60
2018-08-06T06:19:53.510Z,63.49
2018-08-06T06:22:26.237Z,62.84
2018-08-06T06:24:58.650Z,61.80
2018-08-06T06:27:33.461Z,63.31
2018-08-06T06:30:05.731Z,62.06
2018-08-06T06:32:40.663Z,62.83
2018-08-06T06:35:14.374Z,62.88
2018-08-06T06:37:46.931Z,63.12
2018-08-06T06:40:18.564Z,64.19
2018-08-06T06:42:50.237Z,63.68
2018-08-06T06:45:21.793Z,60.99
2018-08-06T06:47:53.740Z,61.79
2018-08-06T06:50:25.932Z,62.29
2018-08-06T06:53:02.820Z,62.21
2018-08-06T06:55:34.758Z,62.79
2018-08-06T06:58:09.277Z,62.50
2018-08-06T07:00:42.151Z,63.03
2018-08-06T07:03:14.428Z,62.60
2018-08-06T07:05:46.821Z,63.43
2018-08-06T07:08:20.784Z,63.27
2018-08-06T07:10:52.346Z,63.08
2018-08-06T07:13:24.089Z,63.42
2018-08-06T07:15:56.534Z,62.53
2018-08-06T07:18:29.472Z,62.29
2018-08-06T07:21:01.612Z,63.13
2018-08-06T07:23:33.393Z,62.75
2018-08-06T07:26:05.445Z,62.79
2018-08-06T07:28:37.145Z,62.95
2018-08-06T07:31:11.123Z,62.79
2018-08-06T07:33:45.325Z,63.76
2018-08-06T07:36:17.918Z,62.27
2018-08-06T07:38:50.646Z,63.10
2018-08-06T07:41:22.997Z,62.34
2018-08-06T07:43:55.433Z,62.57
2018-08-06T07:46:28.304Z,63.65
2018-08-06T07:49:00.142Z,63.51
2018-08-06T07:51:32.141Z,64.57
2018-08-06T07:54:04.258Z,63.75
2018-08-06T07:56:36.470Z,64.09
2018-08-06T07:59:08.132Z,64.10
2018-08-06T08:01:39.980Z,64.58
2018-08-06T08:04:11.901Z,63.37
2018-08-06T08:06:44.759Z,63.85
2018-08-06T08:09:16.687Z,63.98
2018-08-06T08:11:49.430Z,64.24
2018-08-06T08:14:21.576Z,64.56
2018-08-06T08:16:53.500Z,63.17
2018-08-06T08:19:25.389Z,63.43
2018-08-06T08:21:58.022Z,63.59
2018-08-06T08:24:30.051Z,63.27
2018-08-06T08:27:01.822Z,62.77
2018-08-06T08:29:33.975Z,63.49
2018-08-06T08:32:06.083Z,63.35
2018-08-06T08:34:38.005Z,62.85
2018-08-06T08:37:09.771Z,63.57
2018-08-06T08:39:41.914Z,61.57
2018-08-06T08:42:13.691Z,63.07
2018-08-06T08:44:45.783Z,62.24
2018-08-06T08:47:17.498Z,62.64
2018-08-06T08:49:49.551Z,62.36
2018-08-06T08:52:21.474Z,62.41
2018-08-06T08:54:53.547Z,62.82
2018-08-06T08:57:25.521Z,63.01
2018-08-06T08:59:57.823Z,62.86
2018-08-06T09:02:29.654Z,63.45
2018-08-06T09:05:01.613Z,63.38
2018-08-06T09:07:34.643Z,63.71
2018-08-06T09:10:08.139Z,63.86
2018-08-06T09:12:40.586Z,64.48
2018-08-06T09:15:18.640Z,63.75
2018-08-06T09:17:51.653Z,64.24
2018-08-06T09:20:24.396Z,63.10
2018-08-06T09:22:56.792Z,62.53
2018-08-06T09:25:28.686Z,63.01
2018-08-06T09:28:01.317Z,61.98
2018-08-06T09:30:34.401Z,63.04
2018-08-06T09:33:06.745Z,62.65
2018-08-06T09:35:38.887Z,62.01
2018-08-06T09:38:11.564Z,62.66
2018-08-06T09:40:43.455Z,62.70
2018-08-06T09:43:16.204Z,62.13
2018-08-06T09:45:48.559Z,62.92
2018-08-06T09:48:21.138Z,62.68
2018-08-06T09:50:53.483Z,62.79
2018-08-06T09:53:26.135Z,62.79
2018-08-06T09:55:58.914Z,62.91
2018-08-06T09:58:31.274Z,62.55
2018-08-06T10:01:10.551Z,63.18
2018-08-06T10:03:42.643Z,63.44
2018-08-06T10:06:15.294Z,63.18
2018-08-06T10:08:49.187Z,62.61
2018-08-06T10:11:22.146Z,63.98
2018-08-06T10:13:54.258Z,62.49
2018-08-06T10:16:26.754Z,55.70
2018-08-06T10:18:59.315Z,58.65
2018-08-06T10:21:32.162Z,59.98
2018-08-06T10:24:04.586Z,61.01
2018-08-06T10:26:37.432Z,61.64
2018-08-06T10:29:09.937Z,59.82
2018-08-06T10:31:42.316Z,59.92
2018-08-06T10:34:14.712Z,59.69
2018-08-06T10:36:47.321Z,59.34
2018-08-06T10:39:19.742Z,59.97
2018-08-06T10:41:52.338Z,58.14
2018-08-06T10:44:25.400Z,59.23
2018-08-06T10:46:57.809Z,58.40
2018-08-06T10:49:29.755Z,57.70
2018-08-06T10:52:02.031Z,58.48
2018-08-06T10:54:34.295Z,58.34
2018-08-06T10:57:06.472Z,58.86
2018-08-06T10:59:38.279Z,58.00
2018-08-06T11:02:10.683Z,57.97
2018-08-06T11:04:45.368Z,58.66
2018-08-06T11:07:17.718Z,59.47
2018-08-06T11:09:51.463Z,58.30
2018-08-06T11:12:23.667Z,58.76
2018-08-06T11:14:56.168Z,58.91
2018-08-06T11:17:28.929Z,58.15
2018-08-06T11:20:00.761Z,58.91
2018-08-06T11:22:33.127Z,58.55
2018-08-06T11:25:05.485Z,58.16
2018-08-06T11:27:37.936Z,57.37
2018-08-06T11:30:12.346Z,58.13
2018-08-06T11:32:44.707Z,57.82
2018-08-06T11:35:16.952Z,57.98
2018-08-06T11:37:49.037Z,58.41
2018-08-06T11:40:21.097Z,58.46
2018-08-06T11:42:53.352Z,58.55
2018-08-06T11:45:25.662Z,58.22
2018-08-06T11:47:57.645Z,57.21
2018-08-06T11:50:30.237Z,57.29
2018-08-06T11:53:02.833Z,57.11
2018-08-06T11:55:34.933Z,56.97
2018-08-06T11:58:07.568Z,56.91
2018-08-06T12:00:40.079Z,57.35
2018-08-06T12:03:11.988Z,58.24
2018-08-06T12:05:44.257Z,57.33
2018-08-06T12:08:16.677Z,58.19
2018-08-06T12:10:49.018Z,57.63
2018-08-06T12:13:21.277Z,57.48
2018-08-06T12:15:53.254Z,57.60
2018-08-06T12:18:25.705Z,56.81
2018-08-06T12:20:57.701Z,56.36
2018-08-06T12:23:29.961Z,56.98
2018-08-06T12:26:02.476Z,56.92
2018-08-06T12:28:34.740Z,57.09
2018-08-06T12:31:08.252Z,57.56
2018-08-06T12:33:40.461Z,58.34
2018-08-06T12:36:12.835Z,58.46
2018-08-06T12:38:50.880Z,61.09
2018-08-06T12:41:23.585Z,57.55
2018-08-06T12:43:56.123Z,59.24
2018-08-06T12:46:28.093Z,56.54
2018-08-06T12:49:00.085Z,56.10
2018-08-06T12:51:32.482Z,58.27
2018-08-06T12:54:04.650Z,60.32
2018-08-06T12:56:36.835Z,59.20
2018-08-06T12:59:08.830Z,60.38
2018-08-06T13:01:41.358Z,60.76
2018-08-06T13:04:13.841Z,61.70
2018-08-06T13:06:45.933Z,61.00
2018-08-06T13:09:18.348Z,61.29
2018-08-06T13:11:50.100Z,62.67
2018-08-06T13:14:23.115Z,62.74
2018-08-06T13:16:54.650Z,62.97
2018-08-06T13:19:26.661Z,62.27
2018-08-06T13:21:58.343Z,62.49
2018-08-06T13:24:30.258Z,63.05
2018-08-06T13:27:01.981Z,65.00
2018-08-06T13:29:34.029Z,64.66
2018-08-06T13:32:05.852Z,63.58
2018-08-06T13:34:37.993Z,64.18
2018-08-06T13:37:10.090Z,62.96
2018-08-06T13:39:41.961Z,62.74
2018-08-06T13:42:13.886Z,62.11
2018-08-06T13:44:46.399Z,62.73
2018-08-06T13:47:18.107Z,62.60
2018-08-06T13:49:50.359Z,63.85
2018-08-06T13:52:22.190Z,64.29
2018-08-06T13:54:54.348Z,64.80
2018-08-06T13:57:26.205Z,66.32
2018-08-06T13:59:58.393Z,64.76
2018-08-06T14:02:31.313Z,62.15
2018-08-06T14:05:03.249Z,65.56
2018-08-06T14:07:35.090Z,64.49
2018-08-06T14:10:08.409Z,65.26
2018-08-06T14:12:40.311Z,63.17
2018-08-06T14:15:13.199Z,64.54
2018-08-06T14:17:45.429Z,59.28
2018-08-06T14:20:19.585Z,59.54
2018-08-06T14:22:51.378Z,61.80
2018-08-06T14:25:23.258Z,63.24
2018-08-06T14:27:54.895Z,63.63
2018-08-06T14:30:26.860Z,63.02
2018-08-06T14:32:58.732Z,64.01
2018-08-06T14:35:30.734Z,64.39
2018-08-06T14:38:02.647Z,65.54
2018-08-06T14:40:34.662Z,65.90
2018-08-06T14:43:06.553Z,65.62
2018-08-06T14:45:38.669Z,65.29
2018-08-06T14:48:10.374Z,65.50
2018-08-06T14:50:42.197Z,64.27
2018-08-06T14:53:14.528Z,64.48
2018-08-06T14:55:46.311Z,63.20
2018-08-06T14:58:18.281Z,62.79
2018-08-06T15:00:50.038Z,62.67
2018-08-06T15:03:22.700Z,63.12
2018-08-06T15:05:54.643Z,62.66
2018-08-06T15:08:26.396Z,63.31
2018-08-06T15:10:58.585Z,63.15
2018-08-06T15:13:29.982Z,63.25
2018-08-06T15:16:02.037Z,62.79
2018-08-06T15:18:33.810Z,63.58
2018-08-06T15:21:05.757Z,62.84
2018-08-06T15:23:37.506Z,62.84
2018-08-06T15:26:09.659Z,63.16
2018-08-06T15:28:41.512Z,62.88
2018-08-06T15:31:13.355Z,62.62
2018-08-06T15:33:45.044Z,62.72
2018-08-06T15:36:17.172Z,62.76
2018-08-06T15:38:48.989Z,61.77
2018-08-06T15:41:21.008Z,61.51
2018-08-06T15:43:53.081Z,62.81
2018-08-06T15:46:25.422Z,61.75
2018-08-06T15:48:57.538Z,62.54
2018-08-06T15:51:29.758Z,61.48
2018-08-06T15:54:01.520Z,61.79
2018-08-06T15:56:33.577Z,61.50
2018-08-06T15:59:05.297Z,59.57
2018-08-06T16:01:39.111Z,60.20
2018-08-06T16:04:18.434Z,61.37
2018-08-06T16:06:51.010Z,59.69
2018-08-06T16:09:23.449Z,59.52
2018-08-06T16:11:55.985Z,58.67
2018-08-06T16:14:28.578Z,57.89
2018-08-06T16:17:05.158Z,58.53
2018-08-06T16:19:37.751Z,58.22
2018-08-06T16:22:09.628Z,57.34
2018-08-06T16:24:41.920Z,57.82
2018-08-06T16:27:16.346Z,58.46
2018-08-06T16:29:49.037Z,57.97
2018-08-06T16:32:20.969Z,57.26
2018-08-06T16:34:57.943Z,57.67
2018-08-06T16:37:30.303Z,58.24
2018-08-06T16:40:02.478Z,57.29
2018-08-06T16:42:35.108Z,57.38
2018-08-06T16:45:08.194Z,56.94
2018-08-06T16:47:40.583Z,58.08
2018-08-06T16:50:14.426Z,57.08
2018-08-06T16:52:47.829Z,57.83
2018-08-06T16:55:20.286Z,57.08
2018-08-06T16:57:53.371Z,56.69
2018-08-06T17:00:25.800Z,56.05
2018-08-06T17:05:36.071Z,55.45
2018-08-06T17:08:08.568Z,56.21
2018-08-06T17:10:40.473Z,56.41
2018-08-06T17:13:12.362Z,56.76
2018-08-06T17:15:45.405Z,57.51
2018-08-06T17:18:17.419Z,56.94
2018-08-06T17:20:50.234Z,55.48
2018-08-06T17:23:22.471Z,56.13
2018-08-06T17:25:54.705Z,55.83
2018-08-06T17:28:26.900Z,55.83
2018-08-06T17:30:59.517Z,55.46
2018-08-06T17:36:13.402Z,56.95
2018-08-06T17:38:50.238Z,56.96
2018-08-06T17:41:23.115Z,56.01
2018-08-06T17:43:55.065Z,56.71
2018-08-06T17:46:27.286Z,56.95
2018-08-06T17:49:00.072Z,56.57
2018-08-06T17:51:31.982Z,55.92
2018-08-06T17:54:04.071Z,55.03
2018-08-06T17:56:35.785Z,57.10
2018-08-06T17:59:07.742Z,55.65
2018-08-06T18:01:39.802Z,54.81
2018-08-06T18:35:55.969Z,49.19
2018-08-06T18:38:29.060Z,51.03
2018-08-06T18:41:02.065Z,50.78
2018-08-06T18:43:35.399Z,53.65
2018-08-06T18:46:07.197Z,52.35
2018-08-06T18:48:39.362Z,54.10
2018-08-06T18:51:11.431Z,54.95
2018-08-06T18:53:43.345Z,54.46
2018-08-06T18:56:14.936Z,53.98
2018-08-06T18:58:46.671Z,52.17
2018-08-06T19:01:18.487Z,53.43
2018-08-06T19:03:50.277Z,52.70
2018-08-06T19:06:23.152Z,53.23
2018-08-06T19:11:36.950Z,55.14
2018-08-06T19:14:13.682Z,55.53
2018-08-06T19:16:45.673Z,56.19
2018-08-06T19:19:24.021Z,57.01
2018-08-06T19:21:57.059Z,57.01
2018-08-06T19:24:38.423Z,57.71
2018-08-06T19:27:10.689Z,57.37
2018-08-06T19:29:43.672Z,56.95
2018-08-06T19:32:15.877Z,57.27
2018-08-06T19:34:47.947Z,56.39
2018-08-06T19:37:25.116Z,57.81
2018-08-06T19:39:57.960Z,57.74
2018-08-06T19:42:34.270Z,56.65
2018-08-06T19:45:06.420Z,57.71
2018-08-06T19:47:38.595Z,58.21
2018-08-06T19:50:15.392Z,58.37
2018-08-06T19:55:33.413Z,57.27
2018-08-06T19:58:05.649Z,58.88
2018-08-06T20:00:37.761Z,59.05
2018-08-06T20:03:10.137Z,57.98
2018-08-06T20:05:43.001Z,57.61
2018-08-06T20:08:15.478Z,58.46
2018-08-06T20:10:47.957Z,58.27
2018-08-06T20:13:20.241Z,58.82
2018-08-06T20:15:57.722Z,58.39
2018-08-06T20:18:31.621Z,59.14
2018-08-06T20:21:04.610Z,59.00
2018-08-06T20:23:37.375Z,58.71
2018-08-06T20:28:52.119Z,57.96
2018-08-06T20:31:24.555Z,57.29
2018-08-06T20:33:58.175Z,58.62
2018-08-06T20:36:35.418Z,58.01
2018-08-06T20:39:11.127Z,58.48
2018-08-06T20:41:43.448Z,58.47
2018-08-06T20:44:15.566Z,59.54
2018-08-06T20:46:47.838Z,58.92
2018-08-06T20:49:20.266Z,58.94
2018-08-06T20:51:52.703Z,58.85
2018-08-06T20:54:25.188Z,58.88
2018-08-06T20:56:57.215Z,57.50
2018-08-06T20:59:29.526Z,57.02
2018-08-06T21:02:01.708Z,58.25
2018-08-06T21:04:33.761Z,57.83
2018-08-06T21:07:05.934Z,58.46
2018-08-06T21:09:38.183Z,59.10
2018-08-06T21:12:10.422Z,57.74
2018-08-06T21:14:42.542Z,57.74
2018-08-06T21:17:14.628Z,57.08
2018-08-06T21:19:46.901Z,57.28
2018-08-06T21:22:20.026Z,58.38
2018-08-06T21:24:52.378Z,57.59
2018-08-06T21:27:24.212Z,58.38
2018-08-06T21:29:56.460Z,58.48
2018-08-06T21:32:29.715Z,58.73
2018-08-06T21:35:01.609Z,59.17
2018-08-06T21:37:33.688Z,57.31
2018-08-06T21:40:06.033Z,57.74
2018-08-06T21:42:38.016Z,56.79
2018-08-06T21:45:10.283Z,58.20
2018-08-06T21:47:42.824Z,59.46
2018-08-06T21:50:15.491Z,59.51
2018-08-06T21:52:47.532Z,59.05
2018-08-06T21:55:19.813Z,58.23
2018-08-06T21:57:51.796Z,58.61
2018-08-06T22:00:34.812Z,59.03
2018-08-06T22:03:13.727Z,59.23
2018-08-06T22:12:51.304Z,58.34
2018-08-06T22:15:23.743Z,59.80
2018-08-06T22:17:55.479Z,58.82
2018-08-06T22:20:27.480Z,60.26
2018-08-06T22:22:59.557Z,60.27
2018-08-06T22:25:31.541Z,60.12
2018-08-06T22:28:03.284Z,59.60
2018-08-06T23:07:39.696Z,60.77
2018-08-06T23:10:19.119Z,59.38
2018-08-06T23:12:56.039Z,59.38
2018-08-06T23:15:32.404Z,60.71
2018-08-06T23:18:08.876Z,59.08
2018-08-06T23:20:47.354Z,59.96
2018-08-06T23:26:14.056Z,60.66
2018-08-06T23:28:49.685Z,60.46
2018-08-06T23:31:26.608Z,60.46
2018-08-06T23:34:05.388Z,60.73
2018-08-06T23:36:43.476Z,58.97
2018-08-06T23:39:27.666Z,58.42
2018-08-06T23:42:03.799Z,58.42
2018-08-06T23:44:38.633Z,59.94
2018-08-06T23:47:17.790Z,59.60
2018-08-06T23:49:56.065Z,60.36
2018-08-06T23:52:34.723Z,60.69
2018-08-06T23:55:08.610Z,60.69
2018-08-06T23:57:45.876Z,60.69
